createdAt,value
2018-07-07T00:00:21.811Z,2.20
2018-07-07T00:02:50.021Z,1.50
2018-07-07T00:05:18.203Z,1.40
2018-07-07T00:07:46.396Z,1.80
2018-07-07T00:10:15.316Z,1.83
2018-07-07T00:12:43.635Z,1.70
2018-07-07T00:15:16.795Z,2.77
2018-07-07T00:17:45.498Z,3.10
2018-07-07T00:20:13.956Z,2.03
2018-07-07T00:22:41.867Z,2.20
2018-07-07T00:25:13.823Z,2.00
2018-07-07T00:27:42.094Z,1.87
2018-07-07T00:30:10.262Z,1.73
2018-07-07T00:32:38.449Z,2.40
2018-07-07T00:35:06.692Z,1.87
2018-07-07T00:37:34.903Z,1.80
2018-07-07T00:40:03.366Z,1.73
2018-07-07T00:42:31.530Z,1.97
2018-07-07T00:44:59.695Z,2.17
2018-07-07T00:47:27.876Z,2.63
2018-07-07T00:49:56.067Z,2.67
2018-07-07T00:52:24.307Z,1.70
2018-07-07T00:54:52.503Z,3.00
2018-07-07T00:57:20.668Z,2.50
2018-07-07T00:59:48.859Z,2.87
2018-07-07T01:02:19.556Z,2.53
2018-07-07T01:04:48.950Z,2.50
2018-07-07T01:07:17.109Z,2.83
2018-07-07T01:09:45.337Z,2.30
2018-07-07T01:12:13.536Z,2.63
2018-07-07T01:14:41.707Z,3.13
2018-07-07T01:17:09.903Z,2.50
2018-07-07T01:19:38.067Z,3.90
2018-07-07T01:22:08.404Z,3.90
2018-07-07T01:24:36.571Z,3.07
2018-07-07T01:27:04.731Z,3.10
2018-07-07T01:29:32.903Z,3.07
2018-07-07T01:32:01.080Z,4.00
2018-07-07T01:34:29.352Z,3.37
2018-07-07T01:36:57.561Z,3.63
2018-07-07T01:39:25.737Z,3.40
2018-07-07T01:41:53.902Z,3.00
2018-07-07T01:44:22.079Z,3.20
2018-07-07T01:46:50.284Z,3.87
2018-07-07T01:49:18.476Z,3.33
2018-07-07T01:51:47.199Z,3.87
2018-07-07T01:54:15.371Z,3.17
2018-07-07T01:56:43.528Z,2.80
2018-07-07T01:59:11.699Z,3.20
2018-07-07T02:01:39.871Z,3.10
2018-07-07T02:04:08.042Z,3.10
2018-07-07T02:06:36.207Z,2.53
2018-07-07T02:09:05.141Z,3.23
2018-07-07T02:11:33.310Z,2.70
2018-07-07T02:14:01.481Z,3.90
2018-07-07T02:16:29.666Z,3.33
2018-07-07T02:18:57.611Z,4.40
2018-07-07T02:21:25.824Z,2.83
2018-07-07T02:23:53.993Z,3.00
2018-07-07T02:26:21.970Z,2.70
2018-07-07T02:28:50.139Z,2.60
2018-07-07T02:31:18.328Z,3.00
2018-07-07T02:33:47.080Z,3.13
2018-07-07T02:36:15.243Z,3.57
2018-07-07T02:38:43.423Z,3.17
2018-07-07T02:41:11.588Z,2.80
2018-07-07T02:43:39.777Z,2.30
2018-07-07T02:46:08.048Z,2.67
2018-07-07T02:48:36.191Z,2.60
2018-07-07T02:51:04.361Z,3.07
2018-07-07T02:53:32.544Z,2.80
2018-07-07T02:56:00.706Z,3.40
2018-07-07T02:58:28.896Z,3.33
2018-07-07T03:00:57.067Z,3.23
2018-07-07T03:03:25.312Z,3.33
2018-07-07T03:05:53.464Z,3.20
2018-07-07T03:08:21.969Z,3.20
2018-07-07T03:10:50.152Z,3.50
2018-07-07T03:13:18.336Z,3.33
2018-07-07T03:15:47.000Z,3.40
2018-07-07T03:18:15.179Z,2.60
2018-07-07T03:20:43.368Z,3.77
2018-07-07T03:23:11.548Z,3.23
2018-07-07T03:25:39.727Z,2.63
2018-07-07T03:28:07.984Z,3.17
2018-07-07T03:30:36.158Z,2.97
2018-07-07T03:33:04.356Z,3.10
2018-07-07T03:35:32.538Z,2.73
2018-07-07T03:38:00.727Z,3.40
2018-07-07T03:40:28.887Z,3.00
2018-07-07T03:42:57.055Z,2.83
2018-07-07T03:45:25.237Z,2.80
2018-07-07T03:47:53.459Z,3.50
2018-07-07T03:50:21.733Z,2.93
2018-07-07T03:52:49.922Z,4.17
2018-07-07T03:55:18.087Z,3.23
2018-07-07T03:57:46.338Z,3.27
2018-07-07T04:00:14.513Z,2.67
2018-07-07T04:02:42.685Z,5.03
2018-07-07T04:05:10.875Z,2.87
2018-07-07T04:07:39.042Z,3.00
2018-07-07T04:10:07.211Z,2.37
2018-07-07T04:12:35.389Z,3.13
2018-07-07T04:15:03.597Z,2.90
2018-07-07T04:17:31.768Z,3.33
2018-07-07T04:20:00.010Z,2.97
2018-07-07T04:22:28.234Z,2.67
2018-07-07T04:24:56.387Z,3.53
2018-07-07T04:27:24.563Z,2.80
2018-07-07T04:29:52.829Z,3.03
2018-07-07T04:32:21.031Z,3.50
2018-07-07T04:34:49.204Z,3.30
2018-07-07T04:37:17.390Z,3.30
2018-07-07T04:39:45.552Z,2.40
2018-07-07T04:42:13.726Z,3.10
2018-07-07T04:44:41.896Z,2.50
2018-07-07T04:47:10.068Z,2.47
2018-07-07T04:49:38.239Z,2.83
2018-07-07T04:52:06.416Z,2.77
2018-07-07T04:54:34.587Z,2.50
2018-07-07T04:57:02.769Z,2.90
2018-07-07T04:59:31.099Z,2.13
2018-07-07T05:01:59.287Z,3.00
2018-07-07T05:04:27.539Z,2.10
2018-07-07T05:06:55.653Z,2.57
2018-07-07T05:09:23.827Z,3.00
2018-07-07T05:11:52.011Z,3.27
2018-07-07T05:14:20.219Z,3.07
2018-07-07T05:16:48.415Z,2.80
2018-07-07T05:19:16.604Z,2.93
2018-07-07T05:21:44.835Z,3.10
2018-07-07T05:24:13.120Z,2.73
2018-07-07T05:26:41.292Z,2.67
2018-07-07T05:29:09.456Z,3.20
2018-07-07T05:31:37.650Z,2.80
2018-07-07T05:34:06.114Z,2.57
2018-07-07T05:36:34.439Z,2.43
2018-07-07T05:39:02.636Z,2.93
2018-07-07T05:41:30.843Z,3.40
2018-07-07T05:43:59.019Z,3.10
2018-07-07T05:46:27.195Z,2.70
2018-07-07T05:48:55.367Z,3.10
2018-07-07T05:51:23.535Z,3.00
2018-07-07T05:53:51.731Z,2.20
2018-07-07T05:56:19.932Z,3.10
2018-07-07T05:58:48.114Z,2.67
2018-07-07T06:01:16.294Z,2.87
2018-07-07T06:03:45.153Z,3.00
2018-07-07T06:06:13.303Z,3.53
2018-07-07T06:08:41.533Z,2.83
2018-07-07T06:11:09.733Z,2.13
2018-07-07T06:13:37.655Z,2.47
2018-07-07T06:16:05.857Z,2.47
2018-07-07T06:18:34.041Z,2.23
2018-07-07T06:21:02.201Z,1.60
2018-07-07T06:23:30.383Z,2.30
2018-07-07T06:25:58.567Z,2.70
2018-07-07T06:28:26.507Z,2.90
2018-07-07T06:30:54.724Z,2.57
2018-07-07T06:33:22.904Z,2.50
2018-07-07T06:35:51.096Z,2.40
2018-07-07T06:38:19.276Z,1.40
2018-07-07T06:40:47.495Z,1.93
2018-07-07T06:43:15.677Z,1.90
2018-07-07T06:45:43.659Z,2.03
2018-07-07T06:48:12.296Z,2.57
2018-07-07T06:50:41.037Z,1.50
2018-07-07T06:53:09.139Z,1.17
2018-07-07T06:55:37.318Z,2.20
2018-07-07T06:58:05.600Z,1.30
2018-07-07T07:00:33.802Z,1.53
2018-07-07T07:03:02.033Z,1.60
2018-07-07T07:05:30.243Z,1.80
2018-07-07T07:07:58.408Z,1.57
2018-07-07T07:10:26.603Z,1.20
2018-07-07T07:12:54.820Z,1.40
2018-07-07T07:15:22.991Z,2.10
2018-07-07T07:17:51.191Z,1.33
2018-07-07T07:20:19.377Z,1.20
2018-07-07T07:22:47.716Z,1.60
2018-07-07T07:25:16.012Z,1.80
2018-07-07T07:27:44.652Z,1.40
2018-07-07T07:30:12.723Z,1.70
2018-07-07T07:32:40.652Z,1.50
2018-07-07T07:35:08.848Z,1.40
2018-07-07T07:37:37.044Z,1.20
2018-07-07T07:40:05.263Z,1.10
2018-07-07T07:42:33.835Z,1.77
2018-07-07T07:45:02.093Z,1.43
2018-07-07T07:47:30.368Z,1.20
2018-07-07T07:49:58.543Z,1.17
2018-07-07T07:52:26.731Z,1.00
2018-07-07T07:54:54.995Z,2.17
2018-07-07T07:57:23.222Z,1.57
2018-07-07T07:59:51.380Z,1.10
2018-07-07T08:02:19.623Z,1.00
2018-07-07T08:04:47.925Z,1.23
2018-07-07T08:07:16.174Z,1.40
2018-07-07T08:09:44.369Z,1.20
2018-07-07T08:12:12.767Z,1.57
2018-07-07T08:14:40.997Z,1.03
2018-07-07T08:17:09.168Z,0.90
2018-07-07T08:19:37.484Z,0.97
2018-07-07T08:22:06.076Z,1.10
2018-07-07T08:24:34.334Z,1.43
2018-07-07T08:27:02.533Z,1.13
2018-07-07T08:29:30.719Z,1.17
2018-07-07T08:31:58.670Z,0.90
2018-07-07T08:34:26.967Z,1.00
2018-07-07T08:36:55.108Z,1.07
2018-07-07T08:39:23.306Z,0.90
2018-07-07T08:41:51.294Z,1.30
2018-07-07T08:44:19.472Z,1.00
2018-07-07T08:46:47.966Z,1.03
2018-07-07T08:49:16.185Z,0.83
2018-07-07T08:51:44.351Z,0.77
2018-07-07T08:54:12.612Z,0.83
2018-07-07T08:56:40.797Z,1.20
2018-07-07T08:59:08.968Z,0.60
2018-07-07T09:01:37.145Z,0.90
2018-07-07T09:04:05.389Z,0.90
2018-07-07T09:06:33.564Z,1.00
2018-07-07T09:09:01.840Z,0.70
2018-07-07T09:11:30.041Z,0.97
2018-07-07T09:13:58.292Z,1.00
2018-07-07T09:16:26.464Z,0.90
2018-07-07T09:18:54.735Z,1.30
2018-07-07T09:21:22.894Z,1.20
2018-07-07T09:23:50.850Z,0.90
2018-07-07T09:26:19.032Z,0.87
2018-07-07T09:28:47.239Z,1.20
2018-07-07T09:31:15.423Z,1.30
2018-07-07T09:33:43.683Z,0.80
2018-07-07T09:36:12.166Z,1.00
2018-07-07T09:38:40.363Z,1.00
2018-07-07T09:41:08.539Z,1.13
2018-07-07T09:43:36.877Z,1.00
2018-07-07T09:46:05.124Z,1.60
2018-07-07T09:48:33.101Z,1.20
2018-07-07T09:51:01.268Z,1.07
2018-07-07T09:53:29.244Z,1.47
2018-07-07T09:55:57.428Z,1.40
2018-07-07T09:58:25.649Z,1.47
2018-07-07T10:00:53.841Z,1.20
2018-07-07T10:03:22.064Z,1.20
2018-07-07T10:05:50.289Z,0.90
2018-07-07T10:08:18.478Z,0.90
2018-07-07T10:10:46.492Z,1.30
2018-07-07T10:13:14.800Z,1.60
2018-07-07T10:15:42.991Z,1.47
2018-07-07T10:18:11.208Z,1.20
2018-07-07T10:20:39.516Z,1.00
2018-07-07T10:23:07.852Z,1.37
2018-07-07T10:25:36.058Z,1.20
2018-07-07T10:28:04.268Z,0.90
2018-07-07T10:30:32.212Z,1.20
2018-07-07T10:33:00.444Z,1.10
2018-07-07T10:35:28.632Z,1.00
2018-07-07T10:37:57.090Z,1.00
2018-07-07T10:40:25.352Z,1.30
2018-07-07T10:42:53.531Z,1.37
2018-07-07T10:45:21.746Z,1.37
2018-07-07T10:47:49.952Z,1.27
2018-07-07T10:50:18.132Z,0.90
2018-07-07T10:52:46.072Z,1.10
2018-07-07T10:55:14.275Z,1.20
2018-07-07T10:57:42.455Z,1.13
2018-07-07T11:00:10.662Z,1.00
2018-07-07T11:02:38.883Z,1.60
2018-07-07T11:05:07.109Z,1.27
2018-07-07T11:07:35.338Z,0.80
2018-07-07T11:10:03.515Z,1.17
2018-07-07T11:12:31.687Z,1.50
2018-07-07T11:14:59.887Z,1.00
2018-07-07T11:17:28.084Z,1.43
2018-07-07T11:19:56.384Z,1.93
2018-07-07T11:22:24.657Z,1.00
2018-07-07T11:24:53.422Z,1.63
2018-07-07T11:27:21.952Z,1.30
2018-07-07T11:29:50.296Z,1.93
2018-07-07T11:32:18.697Z,1.30
2018-07-07T11:34:47.534Z,1.73
2018-07-07T11:37:16.208Z,1.67
2018-07-07T11:39:44.830Z,1.30
2018-07-07T11:42:13.461Z,1.47
2018-07-07T11:44:42.130Z,1.67
2018-07-07T11:47:11.005Z,1.90
2018-07-07T11:49:39.423Z,2.10
2018-07-07T11:52:07.624Z,1.73
2018-07-07T11:54:35.903Z,1.43
2018-07-07T11:57:04.090Z,1.97
2018-07-07T11:59:32.300Z,1.93
2018-07-07T12:02:00.501Z,1.50
2018-07-07T12:04:28.704Z,2.10
2018-07-07T12:06:56.867Z,1.67
2018-07-07T12:09:25.072Z,1.87
2018-07-07T12:11:53.260Z,1.93
2018-07-07T12:14:21.506Z,2.70
2018-07-07T12:16:49.706Z,1.70
2018-07-07T12:19:17.900Z,1.70
2018-07-07T12:21:46.081Z,1.70
2018-07-07T12:24:14.063Z,1.50
2018-07-07T12:26:42.262Z,1.70
2018-07-07T12:29:10.453Z,2.37
2018-07-07T12:31:38.651Z,2.57
2018-07-07T12:34:07.297Z,1.43
2018-07-07T12:36:35.531Z,1.43
2018-07-07T12:39:04.437Z,1.60
2018-07-07T12:41:32.628Z,2.17
2018-07-07T12:44:00.898Z,1.80
2018-07-07T12:46:29.128Z,4.33
2018-07-07T12:48:57.323Z,2.10
2018-07-07T12:51:25.266Z,1.63
2018-07-07T12:53:53.518Z,2.20
2018-07-07T12:56:21.704Z,1.60
2018-07-07T12:58:49.893Z,1.70
2018-07-07T13:01:18.103Z,1.90
2018-07-07T13:03:46.761Z,1.97
2018-07-07T13:06:14.689Z,2.30
2018-07-07T13:08:42.919Z,2.50
2018-07-07T13:11:11.120Z,2.07
2018-07-07T13:13:39.393Z,2.17
2018-07-07T13:16:07.607Z,1.90
2018-07-07T13:18:35.874Z,1.80
2018-07-07T13:21:04.056Z,2.30
2018-07-07T13:23:32.281Z,1.83
2018-07-07T13:26:00.447Z,2.23
2018-07-07T13:28:28.628Z,1.40
2018-07-07T13:30:56.783Z,1.63
2018-07-07T13:33:25.979Z,1.77
2018-07-07T13:35:54.670Z,1.93
2018-07-07T13:38:22.626Z,2.03
2018-07-07T13:40:50.791Z,1.70
2018-07-07T13:43:19.002Z,1.57
2018-07-07T13:45:47.243Z,2.43
2018-07-07T13:48:15.415Z,1.60
2018-07-07T13:50:43.635Z,1.63
2018-07-07T13:53:11.988Z,1.60
2018-07-07T13:55:40.202Z,1.70
2018-07-07T13:58:08.400Z,1.43
2018-07-07T14:00:36.599Z,1.50
2018-07-07T14:03:04.818Z,2.00
2018-07-07T14:05:32.995Z,1.50
2018-07-07T14:08:01.163Z,1.60
2018-07-07T14:10:29.344Z,1.80
2018-07-07T14:12:57.597Z,1.50
2018-07-07T14:15:25.782Z,1.30
2018-07-07T14:17:53.999Z,1.40
2018-07-07T14:20:22.175Z,1.77
2018-07-07T14:22:50.402Z,1.20
2018-07-07T14:25:18.582Z,1.30
2018-07-07T14:27:46.900Z,1.23
2018-07-07T14:30:15.102Z,1.60
2018-07-07T14:32:43.305Z,1.90
2018-07-07T14:35:11.489Z,1.30
2018-07-07T14:37:39.668Z,1.10
2018-07-07T14:40:07.920Z,1.47
2018-07-07T14:42:49.162Z,1.13
2018-07-07T14:45:19.769Z,1.20
2018-07-07T14:47:48.998Z,1.20
2018-07-07T14:50:17.022Z,1.10
2018-07-07T14:52:45.711Z,1.40
2018-07-07T14:55:14.740Z,1.70
2018-07-07T14:57:43.575Z,1.20
2018-07-07T15:00:16.323Z,1.63
2018-07-07T15:02:44.767Z,1.53
2018-07-07T15:05:12.940Z,1.87
2018-07-07T15:07:41.172Z,1.60
2018-07-07T15:10:10.136Z,1.60
2018-07-07T15:12:38.356Z,1.53
2018-07-07T15:15:06.613Z,1.63
2018-07-07T15:17:34.816Z,2.00
2018-07-07T15:20:03.433Z,1.77
2018-07-07T15:22:31.475Z,1.90
2018-07-07T15:24:59.759Z,1.47
2018-07-07T15:27:27.939Z,1.20
2018-07-07T15:29:56.164Z,1.27
2018-07-07T15:32:24.320Z,1.30
2018-07-07T15:34:52.516Z,1.40
2018-07-07T15:37:20.694Z,1.93
2018-07-07T15:39:48.868Z,1.70
2018-07-07T15:42:17.071Z,1.40
2018-07-07T15:44:45.335Z,2.30
2018-07-07T15:47:13.628Z,1.60
2018-07-07T15:49:41.868Z,1.57
2018-07-07T15:52:10.054Z,2.10
2018-07-07T15:54:38.307Z,1.33
2018-07-07T15:57:06.530Z,3.30
2018-07-07T15:59:34.704Z,2.33
2018-07-07T16:02:02.885Z,1.20
2018-07-07T16:04:31.105Z,1.20
2018-07-07T16:06:59.264Z,1.60
2018-07-07T16:09:27.481Z,1.27
2018-07-07T16:11:55.671Z,1.37
2018-07-07T16:14:23.876Z,1.10
2018-07-07T16:16:52.051Z,2.10
2018-07-07T16:19:20.247Z,1.50
2018-07-07T16:21:48.598Z,7.17
2018-07-07T16:24:16.820Z,1.40
2018-07-07T16:26:45.011Z,1.90
2018-07-07T16:29:13.208Z,1.70
2018-07-07T16:31:41.393Z,1.20
2018-07-07T16:34:09.395Z,1.70
2018-07-07T16:36:37.563Z,1.40
2018-07-07T16:39:05.867Z,1.27
2018-07-07T16:41:34.418Z,1.20
2018-07-07T16:44:03.316Z,1.40
2018-07-07T16:46:32.438Z,1.63
2018-07-07T16:49:01.553Z,2.00
2018-07-07T16:51:29.828Z,1.67
2018-07-07T16:53:58.060Z,1.70
2018-07-07T16:56:26.315Z,1.50
2018-07-07T16:58:54.504Z,1.13
2018-07-07T17:01:22.685Z,2.17
2018-07-07T17:03:50.968Z,1.43
2018-07-07T17:06:19.160Z,1.27
2018-07-07T17:08:47.427Z,1.30
2018-07-07T17:11:15.604Z,1.60
2018-07-07T17:13:43.965Z,1.80
2018-07-07T17:16:12.141Z,1.80
2018-07-07T17:18:40.343Z,1.93
2018-07-07T17:21:08.507Z,1.43
2018-07-07T17:23:36.796Z,1.80
2018-07-07T17:26:06.161Z,1.70
2018-07-07T17:28:34.937Z,1.30
2018-07-07T17:31:03.612Z,1.50
2018-07-07T17:33:31.945Z,1.60
2018-07-07T17:36:00.136Z,2.10
2018-07-07T17:38:29.552Z,1.30
2018-07-07T17:40:57.867Z,1.53
2018-07-07T17:43:26.407Z,2.03
2018-07-07T17:45:54.698Z,1.67
2018-07-07T17:48:23.092Z,1.70
2018-07-07T17:50:51.316Z,1.50
2018-07-07T17:53:20.080Z,1.90
2018-07-07T17:55:48.299Z,1.47
2018-07-07T17:58:16.884Z,1.07
2018-07-07T18:00:45.442Z,1.10
2018-07-07T18:03:14.304Z,1.47
2018-07-07T18:05:42.632Z,1.33
2018-07-07T18:08:10.681Z,1.60
2018-07-07T18:10:39.079Z,1.20
2018-07-07T18:13:07.292Z,1.47
2018-07-07T18:15:35.505Z,1.40
2018-07-07T18:18:03.748Z,1.60
2018-07-07T18:20:32.014Z,1.50
2018-07-07T18:23:00.301Z,2.33
2018-07-07T18:25:28.508Z,1.60
2018-07-07T18:27:56.755Z,1.50
2018-07-07T18:30:24.944Z,1.50
2018-07-07T18:32:53.180Z,1.93
2018-07-07T18:35:21.373Z,1.40
2018-07-07T18:37:49.697Z,1.20
2018-07-07T18:40:17.571Z,1.40
2018-07-07T18:42:45.804Z,2.00
2018-07-07T18:45:14.049Z,1.30
2018-07-07T18:47:42.499Z,1.90
2018-07-07T18:50:10.744Z,1.53
2018-07-07T18:52:38.939Z,1.40
2018-07-07T18:55:07.097Z,1.70
2018-07-07T18:57:35.331Z,1.80
2018-07-07T19:00:03.594Z,1.73
2018-07-07T19:02:31.795Z,2.00
2018-07-07T19:05:00.046Z,2.10
2018-07-07T19:07:28.245Z,1.90
2018-07-07T19:09:56.421Z,2.00
2018-07-07T19:12:24.618Z,1.50
2018-07-07T19:14:56.514Z,1.53
2018-07-07T19:17:24.708Z,1.40
2018-07-07T19:19:52.888Z,1.60
2018-07-07T19:22:26.572Z,1.60
2018-07-07T19:25:00.408Z,1.60
2018-07-07T19:27:28.601Z,1.53
2018-07-07T19:29:57.382Z,2.87
2018-07-07T19:32:31.120Z,1.63
2018-07-07T19:35:04.866Z,2.10
2018-07-07T19:37:33.063Z,1.70
2018-07-07T19:40:01.260Z,1.90
2018-07-07T19:42:29.203Z,1.73
2018-07-07T19:44:57.499Z,1.57
2018-07-07T19:47:25.680Z,1.60
2018-07-07T19:49:53.642Z,2.17
2018-07-07T19:52:21.854Z,2.00
2018-07-07T19:54:50.166Z,2.00
2018-07-07T19:57:18.351Z,1.70
2018-07-07T19:59:46.636Z,1.67
2018-07-07T20:02:14.918Z,1.40
2018-07-07T20:04:43.210Z,1.73
2018-07-07T20:07:11.520Z,1.60
2018-07-07T20:09:39.697Z,1.63
2018-07-07T20:12:07.903Z,2.10
2018-07-07T20:14:36.132Z,1.90
2018-07-07T20:17:06.956Z,1.90
2018-07-07T20:19:50.825Z,1.90
2018-07-07T20:22:19.018Z,1.77
2018-07-07T20:24:47.267Z,2.10
2018-07-07T20:27:20.919Z,1.60
2018-07-07T20:29:49.161Z,1.63
2018-07-07T20:32:22.755Z,1.97
2018-07-07T20:34:51.023Z,2.07
2018-07-07T20:37:19.196Z,1.60
2018-07-07T20:39:47.570Z,1.50
2018-07-07T20:42:15.788Z,1.50
2018-07-07T20:44:44.100Z,2.20
2018-07-07T20:47:12.304Z,2.43
2018-07-07T20:49:40.672Z,2.20
2018-07-07T20:52:08.871Z,1.87
2018-07-07T20:54:37.126Z,2.77
2018-07-07T20:57:05.352Z,2.43
2018-07-07T20:59:33.580Z,2.57
2018-07-07T21:02:01.846Z,2.97
2018-07-07T21:04:30.340Z,3.20
2018-07-07T21:06:58.512Z,2.97
2018-07-07T21:09:26.703Z,2.80
2018-07-07T21:11:54.909Z,2.50
2018-07-07T21:14:23.127Z,2.57
2018-07-07T21:16:51.328Z,3.23
2018-07-07T21:19:19.532Z,2.90
2018-07-07T21:21:47.724Z,3.83
2018-07-07T21:24:15.968Z,3.43
2018-07-07T21:26:44.244Z,3.93
2018-07-07T21:29:12.487Z,4.20
2018-07-07T21:31:42.921Z,3.80
2018-07-07T21:34:11.180Z,3.73
2018-07-07T21:36:39.760Z,3.40
2018-07-07T21:39:08.003Z,3.60
2018-07-07T21:41:36.204Z,3.87
2018-07-07T21:44:04.505Z,4.40
2018-07-07T21:46:32.696Z,4.00
2018-07-07T21:49:00.870Z,4.40
2018-07-07T21:51:29.047Z,4.43
2018-07-07T21:53:57.356Z,5.23
2018-07-07T21:56:25.494Z,6.77
2018-07-07T21:58:59.155Z,6.97
2018-07-07T22:01:57.653Z,6.67
2018-07-07T22:04:33.145Z,5.27
2018-07-07T22:07:07.760Z,5.53
2018-07-07T22:09:36.778Z,4.80
2018-07-07T22:12:04.735Z,4.03
2018-07-07T22:14:33.133Z,4.40
2018-07-07T22:17:01.341Z,4.00
2018-07-07T22:19:29.552Z,4.93
2018-07-07T22:22:04.628Z,4.80
2018-07-07T22:24:32.931Z,4.00
2018-07-07T22:27:02.262Z,4.13
2018-07-07T22:29:30.529Z,4.53
2018-07-07T22:31:59.862Z,4.30
2018-07-07T22:34:34.280Z,4.80
2018-07-07T22:37:02.484Z,4.57
2018-07-07T22:39:33.905Z,5.63
2018-07-07T22:42:03.926Z,5.00
2018-07-07T22:44:32.705Z,4.90
2018-07-07T22:47:00.960Z,6.40
2018-07-07T22:49:29.596Z,5.63
2018-07-07T22:51:57.783Z,5.60
2018-07-07T22:54:26.056Z,5.20
2018-07-07T22:56:54.263Z,4.83
2018-07-07T22:59:22.444Z,5.13
2018-07-07T23:01:50.660Z,4.57
2018-07-07T23:04:18.969Z,4.97
2018-07-07T23:06:47.936Z,5.70
2018-07-07T23:09:17.207Z,6.80
2018-07-07T23:11:45.555Z,4.40
2018-07-07T23:14:13.791Z,5.70
2018-07-07T23:16:42.069Z,4.83
2018-07-07T23:19:10.277Z,5.00
2018-07-07T23:21:38.488Z,5.40
2018-07-07T23:24:06.813Z,5.17
2018-07-07T23:26:34.968Z,5.10
2018-07-07T23:29:03.742Z,6.00
2018-07-07T23:31:31.953Z,6.23
2018-07-07T23:35:03.518Z,5.33
2018-07-07T23:37:31.779Z,5.60
2018-07-07T23:39:59.971Z,4.80
2018-07-07T23:42:28.151Z,4.63
2018-07-07T23:44:56.388Z,4.80
2018-07-07T23:47:24.576Z,5.10
2018-07-07T23:49:52.780Z,5.33
2018-07-07T23:52:21.216Z,4.50
2018-07-07T23:54:49.534Z,4.40
2018-07-07T23:57:17.712Z,4.13
2018-07-07T23:59:46.281Z,5.50
